createdAt,value
2023-02-16T00:01:24.007Z,101728.79
2023-02-16T00:03:53.477Z,101726.71
2023-02-16T00:06:21.873Z,101719.95
2023-02-16T00:08:51.391Z,101719.92
2023-02-16T00:11:41.506Z,101720.05
2023-02-16T00:14:11.135Z,101719.49
2023-02-16T00:16:39.548Z,101715.84
2023-02-16T00:19:17.426Z,101715.17
2023-02-16T00:21:45.759Z,101713.80
2023-02-16T00:24:14.000Z,101711.23
2023-02-16T00:26:43.240Z,101707.59
2023-02-16T00:29:21.373Z,101701.34
2023-02-16T00:31:49.833Z,101696.30
2023-02-16T00:34:35.992Z,101689.74
2023-02-16T00:37:05.842Z,101680.08
2023-02-16T00:39:34.410Z,101675.27
2023-02-16T00:42:05.142Z,101669.44
2023-02-16T00:44:37.261Z,101666.86
2023-02-16T00:47:14.536Z,101661.34
2023-02-16T00:49:42.812Z,101656.99
2023-02-16T00:52:27.786Z,101653.88
2023-02-16T00:54:56.130Z,101653.17
2023-02-16T00:57:24.802Z,101651.11
2023-02-16T00:59:58.181Z,101651.96
2023-02-16T01:02:26.909Z,101651.98
2023-02-16T01:48:22.422Z,101605.58
2023-02-16T01:50:56.443Z,101605.92
2023-02-16T01:53:28.736Z,101608.66
2023-02-16T01:56:01.960Z,101606.20
2023-02-16T01:58:36.000Z,101599.08
2023-02-16T02:01:32.428Z,101604.69
2023-02-16T02:04:19.355Z,101600.83
2023-02-16T02:06:48.137Z,101601.18
2023-02-16T02:09:21.972Z,101598.27
2023-02-16T02:11:54.130Z,101596.52
2023-02-16T02:14:28.773Z,101593.26
2023-02-16T02:16:58.785Z,101595.84
2023-02-16T02:19:27.344Z,101594.77
2023-02-16T02:22:29.317Z,101590.65
2023-02-16T02:25:27.524Z,101588.26
2023-02-16T02:28:00.442Z,101587.09
2023-02-16T02:30:38.269Z,101586.76
2023-02-16T02:33:25.247Z,101586.55
2023-02-16T02:35:57.452Z,101584.44
2023-02-16T02:38:30.392Z,101583.55
2023-02-16T02:41:03.883Z,101578.35
2023-02-16T02:43:36.936Z,101572.12
2023-02-16T02:46:08.686Z,101570.23
2023-02-16T02:48:37.146Z,101565.41
2023-02-16T02:51:29.860Z,101559.77
2023-02-16T02:54:39.876Z,101559.59
2023-02-16T02:57:32.787Z,101558.02
2023-02-16T03:00:22.952Z,101558.13
2023-02-16T03:02:53.574Z,101556.83
2023-02-16T03:05:22.966Z,101556.41
2023-02-16T03:07:56.675Z,101558.98
2023-02-16T03:10:45.536Z,101551.73
2023-02-16T03:13:17.477Z,101550.23
2023-02-16T03:15:47.106Z,101544.75
2023-02-16T03:18:34.483Z,101539.23
2023-02-16T03:21:22.983Z,101536.80
2023-02-16T03:24:10.009Z,101532.63
2023-02-16T03:26:57.156Z,101526.57
2023-02-16T03:29:26.810Z,101517.80
2023-02-16T03:31:56.191Z,101516.29
2023-02-16T03:34:25.250Z,101514.71
2023-02-16T03:36:58.087Z,101509.02
2023-02-16T03:39:27.122Z,101508.16
2023-02-16T03:41:56.760Z,101506.08
2023-02-16T03:44:25.336Z,101501.94
2023-02-16T03:46:53.807Z,101504.14
2023-02-16T03:49:22.186Z,101504.68
2023-02-16T03:51:50.570Z,101503.98
2023-02-16T03:54:18.946Z,101500.20
2023-02-16T03:56:47.279Z,101500.69
2023-02-16T03:59:19.577Z,101496.89
2023-02-16T04:01:47.977Z,101492.59
2023-02-16T04:04:16.462Z,101488.64
2023-02-16T04:06:44.864Z,101482.98
2023-02-16T04:09:13.180Z,101476.81
2023-02-16T04:11:59.832Z,101467.57
2023-02-16T04:14:28.247Z,101464.52
2023-02-16T04:16:56.606Z,101461.94
2023-02-16T04:19:24.964Z,101461.96
2023-02-16T04:21:53.339Z,101460.25
2023-02-16T04:24:21.845Z,101460.40
2023-02-16T04:26:50.245Z,101458.48
2023-02-16T04:29:18.587Z,101458.50
2023-02-16T04:31:47.045Z,101457.14
2023-02-16T04:34:15.553Z,101454.22
2023-02-16T04:36:43.903Z,101451.66
2023-02-16T04:39:12.322Z,101446.52
2023-02-16T04:41:40.700Z,101450.33
2023-02-16T04:44:09.121Z,101450.31
2023-02-16T04:46:37.463Z,101449.45
2023-02-16T04:49:06.042Z,101448.95
2023-02-16T04:51:34.491Z,101447.27
2023-02-16T04:54:02.848Z,101449.00
2023-02-16T04:56:31.182Z,101449.20
2023-02-16T04:58:59.620Z,101446.44
2023-02-16T05:01:28.637Z,101449.85
2023-02-16T05:03:57.074Z,101452.37
2023-02-16T05:06:25.429Z,101457.31
2023-02-16T05:08:53.839Z,101451.11
2023-02-16T05:11:40.354Z,101454.07
2023-02-16T05:14:35.250Z,101451.53
2023-02-16T05:17:03.763Z,101447.09
2023-02-16T05:19:32.143Z,101448.30
2023-02-16T05:22:00.542Z,101445.39
2023-02-16T05:24:29.051Z,101442.61
2023-02-16T05:26:57.409Z,101446.39
2023-02-16T05:29:25.901Z,101437.91
2023-02-16T05:31:54.567Z,101429.98
2023-02-16T05:34:23.020Z,101442.12
2023-02-16T05:36:51.391Z,101446.09
2023-02-16T05:39:20.151Z,101436.63
2023-02-16T05:41:49.114Z,101437.80
2023-02-16T05:44:17.683Z,101438.27
2023-02-16T05:46:48.565Z,101444.59
2023-02-16T05:49:17.375Z,101448.69
2023-02-16T05:51:46.193Z,101441.48
2023-02-16T05:54:16.828Z,101441.15
2023-02-16T05:56:46.465Z,101440.65
2023-02-16T05:59:15.657Z,101436.19
2023-02-16T06:01:46.169Z,101433.95
2023-02-16T06:04:15.790Z,101436.87
2023-02-16T06:06:44.647Z,101435.11
2023-02-16T06:09:13.051Z,101428.58
2023-02-16T06:11:41.427Z,101425.34
2023-02-16T06:14:11.399Z,101427.09
2023-02-16T06:16:42.113Z,101423.52
2023-02-16T06:19:11.019Z,101419.92
2023-02-16T06:21:40.188Z,101417.04
2023-02-16T06:24:10.112Z,101417.40
2023-02-16T06:26:38.605Z,101418.46
2023-02-16T06:29:07.056Z,101429.32
2023-02-16T06:31:36.788Z,101436.58
2023-02-16T06:34:06.174Z,101437.48
2023-02-16T06:36:35.048Z,101438.77
2023-02-16T06:39:02.596Z,101431.96
2023-02-16T06:41:31.612Z,101422.02
2023-02-16T06:44:00.708Z,101420.33
2023-02-16T06:46:29.183Z,101430.00
2023-02-16T06:48:57.955Z,101423.34
2023-02-16T06:51:26.487Z,101414.09
2023-02-16T06:53:54.925Z,101418.65
2023-02-16T06:56:23.744Z,101411.48
2023-02-16T06:58:52.332Z,101407.39
2023-02-16T07:01:24.959Z,101408.50
2023-02-16T07:03:53.866Z,101412.16
2023-02-16T07:06:22.225Z,101406.51
2023-02-16T07:08:50.962Z,101401.39
2023-02-16T07:11:19.543Z,101397.13
2023-02-16T07:13:48.208Z,101398.38
2023-02-16T07:16:16.687Z,101399.97
2023-02-16T07:18:45.916Z,101397.94
2023-02-16T07:21:14.986Z,101402.30
2023-02-16T07:23:43.353Z,101400.45
2023-02-16T07:26:11.872Z,101398.05
2023-02-16T07:28:40.283Z,101399.79
2023-02-16T07:31:10.168Z,101400.15
2023-02-16T07:33:39.116Z,101393.45
2023-02-16T07:36:07.256Z,101378.46
2023-02-16T07:38:35.918Z,101393.33
2023-02-16T07:41:07.885Z,101391.09
2023-02-16T07:43:37.839Z,101394.38
2023-02-16T07:46:06.564Z,101395.23
2023-02-16T07:48:35.241Z,101392.48
2023-02-16T07:51:04.490Z,101385.91
2023-02-16T07:53:33.214Z,101384.20
2023-02-16T07:56:01.508Z,101388.17
2023-02-16T07:58:29.951Z,101387.10
2023-02-16T08:01:07.141Z,101385.73
2023-02-16T08:03:35.494Z,101376.22
2023-02-16T08:06:05.037Z,101376.38
2023-02-16T08:08:33.971Z,101375.34
2023-02-16T08:11:08.859Z,101375.16
2023-02-16T08:13:37.298Z,101372.92
2023-02-16T08:16:09.079Z,101366.86
2023-02-16T08:18:37.583Z,101365.11
2023-02-16T08:21:13.486Z,101362.15
2023-02-16T08:23:43.040Z,101363.48
2023-02-16T08:26:11.910Z,101363.81
2023-02-16T08:28:45.380Z,101359.64
2023-02-16T08:31:14.331Z,101363.61
2023-02-16T08:33:43.306Z,101360.30
2023-02-16T08:36:18.217Z,101359.36
2023-02-16T08:38:49.708Z,101359.16
2023-02-16T08:41:18.692Z,101362.05
2023-02-16T08:43:47.218Z,101362.36
2023-02-16T08:46:17.132Z,101362.69
2023-02-16T08:48:46.764Z,101359.70
2023-02-16T08:51:16.884Z,101358.11
2023-02-16T08:53:45.964Z,101346.20
2023-02-16T08:56:16.009Z,101363.05
2023-02-16T08:58:44.578Z,101347.10
2023-02-16T09:01:14.824Z,101360.67
2023-02-16T09:03:45.448Z,101362.70
2023-02-16T09:06:15.437Z,101357.29
2023-02-16T09:08:45.880Z,101356.23
2023-02-16T09:11:15.883Z,101353.09
2023-02-16T09:13:44.430Z,101349.76
2023-02-16T09:16:14.965Z,101353.10
2023-02-16T09:18:44.606Z,101354.89
2023-02-16T09:21:15.177Z,101351.54
2023-02-16T09:23:47.499Z,101349.94
2023-02-16T09:26:16.969Z,101351.46
2023-02-16T09:28:46.545Z,101341.90
2023-02-16T09:31:19.345Z,101335.79
2023-02-16T09:33:47.797Z,101339.69
2023-02-16T09:36:16.681Z,101341.49
2023-02-16T09:38:46.828Z,101347.13
2023-02-16T09:41:23.135Z,101344.97
2023-02-16T09:43:58.145Z,101342.65
2023-02-16T09:46:26.947Z,101340.15
2023-02-16T09:48:56.315Z,101334.20
2023-02-16T09:51:34.420Z,101333.41
2023-02-16T09:54:13.932Z,101335.23
2023-02-16T09:56:45.305Z,101325.87
2023-02-16T09:59:16.694Z,101327.45
2023-02-16T10:01:51.452Z,101314.56
2023-02-16T10:04:30.388Z,101323.16
2023-02-16T10:07:05.493Z,101322.38
2023-02-16T10:09:34.208Z,101316.02
2023-02-16T10:12:05.634Z,101315.61
2023-02-16T10:14:40.502Z,101315.81
2023-02-16T10:17:27.634Z,101314.23
2023-02-16T10:19:59.484Z,101312.11
2023-02-16T10:22:30.803Z,101311.42
2023-02-16T10:25:01.748Z,101314.89
2023-02-16T10:27:35.267Z,101317.63
2023-02-16T10:30:12.830Z,101300.83
2023-02-16T12:06:17.016Z,101223.57
2023-02-16T12:09:07.864Z,101226.08
2023-02-16T12:11:49.762Z,101220.66
2023-02-16T12:14:32.420Z,101223.11
2023-02-16T12:17:13.640Z,101220.23
2023-02-16T12:19:47.909Z,101206.29
2023-02-16T12:22:29.757Z,101219.55
2023-02-16T12:25:19.861Z,101218.05
2023-02-16T12:27:54.126Z,101213.73
2023-02-16T12:30:36.907Z,101210.51
2023-02-16T12:33:27.686Z,101210.15
2023-02-16T12:36:09.382Z,101207.34
2023-02-16T12:38:50.134Z,101193.94
2023-02-16T12:41:22.831Z,101208.41
2023-02-16T12:43:56.642Z,101204.89
2023-02-16T12:46:33.030Z,101202.71
2023-02-16T12:49:08.409Z,101195.85
2023-02-16T12:51:43.673Z,101183.06
2023-02-16T12:54:20.817Z,101185.38
2023-02-16T12:56:56.279Z,101186.92
2023-02-16T12:59:34.007Z,101189.61
2023-02-16T13:02:11.117Z,101186.33
2023-02-16T13:04:45.701Z,101185.60
2023-02-16T13:07:22.621Z,101183.66
2023-02-16T13:10:01.421Z,101182.66
2023-02-16T13:12:35.825Z,101188.40
2023-02-16T13:15:14.324Z,101187.30
2023-02-16T13:17:50.185Z,101185.88
2023-02-16T13:20:24.885Z,101186.76
2023-02-16T13:23:30.385Z,101187.45
2023-02-16T13:26:24.311Z,101181.62
2023-02-16T13:29:27.380Z,101174.83
2023-02-16T13:32:10.278Z,101176.23
2023-02-16T13:34:56.540Z,101173.63
2023-02-16T13:37:38.329Z,101170.80
2023-02-16T13:40:40.007Z,101165.02
2023-02-16T13:43:26.614Z,101177.44
2023-02-16T13:45:58.817Z,101176.86
2023-02-16T13:48:33.616Z,101161.70
2023-02-16T13:51:08.896Z,101168.70
2023-02-16T13:53:42.758Z,101166.02
2023-02-16T13:56:22.376Z,101166.52
2023-02-16T13:58:55.058Z,101165.37
2023-02-16T14:01:43.196Z,101156.72
2023-02-16T14:04:36.678Z,101163.34
2023-02-16T14:07:35.964Z,101152.91
2023-02-16T14:10:09.950Z,101159.16
2023-02-16T14:12:42.092Z,101161.18
2023-02-16T14:15:22.000Z,101160.55
2023-02-16T14:17:54.209Z,101164.06
2023-02-16T14:20:31.676Z,101155.13
2023-02-16T14:23:03.583Z,101159.98
2023-02-16T14:25:42.463Z,101161.45
2023-02-16T14:28:48.686Z,101166.10
2023-02-16T14:31:23.848Z,101154.86
2023-02-16T14:34:04.217Z,101167.95
2023-02-16T14:36:36.156Z,101169.50
2023-02-16T14:39:13.738Z,101170.41
2023-02-16T14:41:45.639Z,101172.29
2023-02-16T14:44:35.026Z,101176.80
2023-02-16T14:47:18.304Z,101170.50
2023-02-16T14:50:09.266Z,101174.66
2023-02-16T14:53:20.031Z,101175.05
2023-02-16T14:56:09.030Z,101166.53
2023-02-16T14:58:48.588Z,101176.94
2023-02-16T15:01:23.195Z,101162.48
2023-02-16T15:03:56.719Z,101173.14
2023-02-16T15:06:35.561Z,101176.29
2023-02-16T15:09:14.606Z,101173.46
2023-02-16T15:12:09.253Z,101170.75
2023-02-16T15:14:45.153Z,101169.58
2023-02-16T15:17:29.553Z,101165.99
2023-02-16T15:20:06.203Z,101165.37
2023-02-16T15:22:43.763Z,101165.30
2023-02-16T15:25:24.620Z,101153.63
2023-02-16T15:27:59.033Z,101170.81
2023-02-16T15:30:32.988Z,101167.53
2023-02-16T15:33:06.907Z,101170.52
2023-02-16T15:35:41.303Z,101171.29
2023-02-16T15:38:23.144Z,101169.80
2023-02-16T15:40:57.149Z,101170.83
2023-02-16T15:43:33.829Z,101166.27
2023-02-16T15:46:07.981Z,101171.34
2023-02-16T15:48:41.172Z,101169.80
2023-02-16T15:51:16.563Z,101166.92
2023-02-16T15:53:51.750Z,101165.67
2023-02-16T15:56:33.277Z,101163.86
2023-02-16T15:59:13.369Z,101159.46
2023-02-16T16:01:46.158Z,101162.90
2023-02-16T16:04:22.232Z,101155.48
2023-02-16T16:06:54.790Z,101159.39
2023-02-16T16:09:28.467Z,101158.61
2023-02-16T16:12:01.946Z,101157.80
2023-02-16T16:14:36.301Z,101157.64
2023-02-16T16:17:08.988Z,101156.84
2023-02-16T16:19:41.158Z,101155.48
2023-02-16T16:22:31.852Z,101157.48
2023-02-16T16:25:04.481Z,101139.02
2023-02-16T16:27:37.533Z,101153.02
2023-02-16T16:30:22.266Z,101151.77
2023-02-16T16:33:04.015Z,101153.68
2023-02-16T16:35:40.480Z,101158.14
2023-02-16T16:38:27.671Z,101160.81
2023-02-16T16:41:01.111Z,101155.48
2023-02-16T16:43:34.093Z,101151.35
2023-02-16T16:46:20.272Z,101150.67
2023-02-16T16:48:53.658Z,101146.55
2023-02-16T16:51:39.787Z,101149.41
2023-02-16T16:54:14.126Z,101133.84
2023-02-16T16:56:46.003Z,101145.98
2023-02-16T16:59:17.843Z,101140.23
2023-02-16T17:01:50.413Z,101144.20
2023-02-16T17:04:22.620Z,101139.98
2023-02-16T17:06:54.656Z,101139.56
2023-02-16T17:09:26.538Z,101134.95
2023-02-16T17:11:58.454Z,101136.77
2023-02-16T17:14:30.327Z,101135.24
2023-02-16T17:17:02.180Z,101120.70
2023-02-16T17:19:34.052Z,101131.81
2023-02-16T17:22:14.154Z,101134.92
2023-02-16T17:24:46.355Z,101138.71
2023-02-16T17:27:19.835Z,101136.80
2023-02-16T17:29:51.689Z,101141.09
2023-02-16T17:32:24.326Z,101136.17
2023-02-16T17:34:56.171Z,101133.34
2023-02-16T17:37:28.110Z,101113.64
2023-02-16T17:39:59.922Z,101134.41
2023-02-16T17:42:31.766Z,101138.16
2023-02-16T17:45:03.701Z,101139.67
2023-02-16T17:47:35.613Z,101138.11
2023-02-16T17:50:09.039Z,101135.80
2023-02-16T17:52:40.955Z,101134.18
2023-02-16T17:55:13.746Z,101139.27
2023-02-16T17:57:45.936Z,101140.89
2023-02-16T18:00:22.541Z,101135.44
2023-02-16T18:02:54.435Z,101119.48
2023-02-16T18:05:26.349Z,101136.20
2023-02-16T18:07:58.315Z,101140.09
2023-02-16T18:10:36.975Z,101141.08
2023-02-16T18:13:09.582Z,101137.55
2023-02-16T18:15:42.632Z,101137.80
2023-02-16T18:18:14.774Z,101137.33
2023-02-16T18:20:46.946Z,101136.36
2023-02-16T18:23:18.894Z,101137.82
2023-02-16T18:25:50.739Z,101139.47
2023-02-16T18:28:28.656Z,101141.29
2023-02-16T18:31:01.234Z,101138.77
2023-02-16T18:33:34.101Z,101137.41
2023-02-16T18:36:07.245Z,101128.17
2023-02-16T18:38:39.688Z,101140.45
2023-02-16T18:41:12.013Z,101141.52
2023-02-16T18:43:43.813Z,101135.50
2023-02-16T18:46:15.684Z,101134.48
2023-02-16T18:48:47.515Z,101135.68
2023-02-16T18:51:23.528Z,101139.14
2023-02-16T18:53:55.337Z,101132.77
2023-02-16T18:56:27.643Z,101137.64
2023-02-16T18:58:59.512Z,101128.40
2023-02-16T19:01:33.377Z,101140.13
2023-02-16T19:04:06.148Z,101144.48
2023-02-16T19:06:38.032Z,101146.40
2023-02-16T19:09:10.043Z,101145.38
2023-02-16T19:11:42.404Z,101146.08
2023-02-16T19:14:16.774Z,101146.60
2023-02-16T19:16:48.672Z,101149.19
2023-02-16T19:19:20.432Z,101144.89
2023-02-16T19:21:52.256Z,101146.30
2023-02-16T19:24:24.287Z,101151.48
2023-02-16T19:26:56.115Z,101144.96
2023-02-16T19:29:28.119Z,101153.26
2023-02-16T19:32:00.021Z,101151.39
2023-02-16T19:34:32.072Z,101146.59
2023-02-16T19:37:03.858Z,101148.84
2023-02-16T19:39:37.985Z,101146.41
2023-02-16T19:42:09.864Z,101144.54
2023-02-16T19:44:42.734Z,101145.22
2023-02-16T19:47:14.497Z,101145.23
2023-02-16T19:49:46.470Z,101145.27
2023-02-16T19:52:18.325Z,101145.80
2023-02-16T19:54:50.181Z,101141.15
2023-02-16T19:57:22.079Z,101139.96
2023-02-16T19:59:54.044Z,101136.86
2023-02-16T20:02:25.990Z,101130.83
2023-02-16T20:04:57.822Z,101132.55
2023-02-16T20:07:29.664Z,101131.35
2023-02-16T20:10:01.431Z,101128.09
2023-02-16T20:12:33.409Z,101129.48
2023-02-16T20:15:06.128Z,101128.80
2023-02-16T20:17:37.997Z,101132.77
2023-02-16T20:20:11.074Z,101130.88
2023-02-16T20:22:42.884Z,101119.18
2023-02-16T20:25:14.925Z,101132.61
2023-02-16T20:27:46.830Z,101135.36
2023-02-16T20:30:24.278Z,101138.47
2023-02-16T20:32:56.153Z,101133.82
2023-02-16T20:35:28.073Z,101133.98
2023-02-16T20:37:59.861Z,101140.36
2023-02-16T20:40:31.855Z,101138.98
2023-02-16T20:43:03.992Z,101121.59
2023-02-16T20:45:41.179Z,101138.30
2023-02-16T20:48:13.014Z,101137.09
2023-02-16T20:50:46.219Z,101142.77
2023-02-16T20:53:18.091Z,101135.02
2023-02-16T20:55:49.948Z,101136.05
2023-02-16T20:58:21.769Z,101137.09
2023-02-16T21:00:53.618Z,101137.95
2023-02-16T21:03:25.557Z,101141.40
2023-02-16T21:05:57.500Z,101138.46
2023-02-16T21:08:29.321Z,101120.03
2023-02-16T21:11:02.368Z,101135.72
2023-02-16T21:13:34.405Z,101136.05
2023-02-16T21:16:07.348Z,101133.98
2023-02-16T21:18:40.694Z,101130.89
2023-02-16T21:21:15.690Z,101130.38
2023-02-16T21:23:49.420Z,101126.57
2023-02-16T21:26:23.180Z,101124.35
2023-02-16T21:28:55.466Z,101126.41
2023-02-16T21:31:28.527Z,101120.72
2023-02-16T21:34:00.406Z,101121.75
2023-02-16T21:36:32.288Z,101124.02
2023-02-16T21:39:05.185Z,101124.00
2023-02-16T21:41:37.079Z,101123.30
2023-02-16T21:44:10.139Z,101121.40
2023-02-16T21:46:43.537Z,101116.41
2023-02-16T21:49:17.718Z,101113.13
2023-02-16T21:51:50.274Z,101115.02
2023-02-16T21:54:42.102Z,101113.81
2023-02-16T21:57:13.844Z,101104.48
2023-02-16T21:59:45.701Z,101093.44
2023-02-16T22:02:17.522Z,101112.69
2023-02-16T22:04:50.645Z,101114.36
2023-02-16T22:07:22.418Z,101110.19
2023-02-16T22:09:54.199Z,101107.20
2023-02-16T22:12:25.981Z,101105.09
2023-02-16T22:14:57.806Z,101109.36
2023-02-16T22:17:29.558Z,101106.21
2023-02-16T22:20:01.483Z,101092.21
2023-02-16T22:22:33.314Z,101103.84
2023-02-16T22:25:05.272Z,101104.86
2023-02-16T22:27:37.040Z,101102.92
2023-02-16T22:30:12.279Z,101101.35
2023-02-16T22:32:44.167Z,101102.34
2023-02-16T22:35:16.194Z,101103.50
2023-02-16T22:37:47.963Z,101103.09
2023-02-16T22:40:20.501Z,101104.95
2023-02-16T22:42:52.320Z,101110.42
2023-02-16T22:45:24.339Z,101107.63
2023-02-16T22:47:56.327Z,101104.84
2023-02-16T22:50:28.224Z,101106.71
2023-02-16T22:52:59.998Z,101101.33
2023-02-16T22:55:31.951Z,101095.27
2023-02-16T22:58:03.687Z,101103.12
2023-02-16T23:00:35.478Z,101105.33
2023-02-16T23:03:07.378Z,101104.29
2023-02-16T23:05:41.418Z,101088.63
2023-02-16T23:08:13.767Z,101100.72
2023-02-16T23:10:59.971Z,101098.21
2023-02-16T23:13:33.375Z,101097.23
2023-02-16T23:16:09.303Z,101095.71
2023-02-16T23:18:41.259Z,101090.53
2023-02-16T23:21:18.322Z,101091.92
2023-02-16T23:23:51.360Z,101088.67
2023-02-16T23:26:24.705Z,101089.21
2023-02-16T23:29:00.368Z,101089.79
2023-02-16T23:31:34.724Z,101083.83
2023-02-16T23:34:07.661Z,101098.48
2023-02-16T23:36:40.191Z,101098.32
2023-02-16T23:39:14.254Z,101098.52
2023-02-16T23:41:46.384Z,101095.55
2023-02-16T23:44:18.340Z,101097.45
2023-02-16T23:46:50.131Z,101081.30
2023-02-16T23:49:22.138Z,101098.02
2023-02-16T23:51:53.948Z,101095.98
2023-02-16T23:54:25.908Z,101091.70
2023-02-16T23:56:59.171Z,101078.13
2023-02-16T23:59:30.967Z,101090.52
